Elba, New York
Current Conditions -  °F | °C
As of 7:54 PM on Sunday 23 Nov 2014 (Local Time) from KROC Reporting Station
Broken Clouds Broken Clouds  
Wind Chill: 47°   Ceiling: 20000
Heat Index: 49°   Visibility: 10mi
Dew Point: 37°   Wind: 6mph
Humidity: 64%   Direction: 120°ESE
Pressure: 29.83"   Gusts: NA
Location:  43.08°N, 78.19°W
Report Text: KROC 240054Z 12005KT 10SM FEW100 BKN200 BKN250 09/03 A2983 RMK AO2 SLP107 T00940028
Loading
Personal Weather Stations






























Interactive Weather Map New forecast layout! Learn more

10-Day Weather Forecast

Advertisements
Track Severe Weather on mobile